createdAt,value
2022-11-16T00:00:54.514Z,99379.78
2022-11-16T00:03:22.963Z,99375.59
2022-11-16T00:05:50.666Z,99372.28
2022-11-16T00:08:18.432Z,99377.09
2022-11-16T00:10:46.206Z,99373.75
2022-11-16T00:13:13.924Z,99385.09
2022-11-16T00:15:41.662Z,99377.13
2022-11-16T00:18:09.341Z,99376.28
2022-11-16T00:20:37.078Z,99369.19
2022-11-16T00:23:05.031Z,99363.72
2022-11-16T00:25:32.761Z,99359.72
2022-11-16T00:28:00.559Z,99357.00
2022-11-16T00:30:28.294Z,99359.72
2022-11-16T00:32:56.015Z,99357.19
2022-11-16T00:35:23.810Z,99355.34
2022-11-16T00:37:51.510Z,99353.22
2022-11-16T00:40:19.195Z,99359.94
2022-11-16T00:42:46.894Z,99365.84
2022-11-16T00:45:14.647Z,99357.03
2022-11-16T00:47:42.330Z,99354.31
2022-11-16T00:50:10.007Z,99355.38
2022-11-16T00:52:37.763Z,99355.97
2022-11-16T00:55:05.439Z,99352.41
2022-11-16T00:57:33.120Z,99347.19
2022-11-16T01:00:00.803Z,99350.75
2022-11-16T01:02:29.171Z,99341.50
2022-11-16T01:04:56.890Z,99354.50
2022-11-16T01:07:24.726Z,99350.13
2022-11-16T01:09:52.676Z,99352.66
2022-11-16T01:12:19.351Z,99354.75
2022-11-16T01:14:47.103Z,99348.66
2022-11-16T01:17:14.975Z,99345.09
2022-11-16T01:19:42.792Z,99339.41
2022-11-16T01:22:10.550Z,99342.38
2022-11-16T01:24:38.342Z,99337.56
2022-11-16T01:27:06.070Z,99335.03
2022-11-16T01:48:38.196Z,99311.19
2022-11-16T01:51:06.292Z,99311.81
2022-11-16T01:53:34.113Z,99316.19
2022-11-16T01:56:01.874Z,99305.91
2022-11-16T01:58:29.619Z,99309.03
2022-11-16T02:00:57.473Z,99305.03
2022-11-16T02:03:25.289Z,99294.97
2022-11-16T02:05:53.040Z,99295.78
2022-11-16T02:08:38.495Z,99284.06
2022-11-16T02:11:06.432Z,99278.84
2022-11-16T02:13:34.174Z,99286.19
2022-11-16T02:16:02.305Z,99276.56
2022-11-16T02:18:30.203Z,99275.09
2022-11-16T02:21:00.961Z,99274.69
2022-11-16T02:23:28.727Z,99268.19
2022-11-16T02:25:56.469Z,99276.38
2022-11-16T02:28:24.348Z,99275.75
2022-11-16T02:30:52.099Z,99257.09
2022-11-16T02:33:19.970Z,99261.50
2022-11-16T02:35:47.703Z,99258.56
2022-11-16T02:38:15.431Z,99246.78
2022-11-16T02:40:43.272Z,99246.78
2022-11-16T02:43:11.114Z,99239.69
2022-11-16T02:45:39.121Z,99242.41
2022-11-16T02:48:06.876Z,99236.34
2022-11-16T02:50:34.661Z,99237.84
2022-11-16T02:53:02.407Z,99233.03
2022-11-16T02:55:30.262Z,99236.38
2022-11-16T02:57:57.978Z,99238.69
2022-11-16T03:00:25.825Z,99237.84
2022-11-16T03:02:53.569Z,99235.13
2022-11-16T03:05:21.317Z,99235.97
2022-11-16T03:07:49.077Z,99239.75
2022-11-16T03:10:36.901Z,99238.09
2022-11-16T03:13:03.820Z,99247.09
2022-11-16T03:15:31.580Z,99249.81
2022-11-16T03:17:59.521Z,99255.47
2022-11-16T03:20:27.289Z,99263.88
2022-11-16T03:22:54.995Z,99250.03
2022-11-16T03:25:22.811Z,99250.66
2022-11-16T03:27:50.621Z,99254.00
2022-11-16T03:30:23.201Z,99250.00
2022-11-16T03:32:51.410Z,99262.38
2022-11-16T03:35:19.357Z,99267.81
2022-11-16T03:37:47.121Z,99273.47
2022-11-16T03:40:14.858Z,99263.41
2022-11-16T03:42:43.067Z,99264.22
2022-11-16T03:45:10.818Z,99269.91
2022-11-16T03:47:38.594Z,99264.47
2022-11-16T03:50:06.347Z,99271.38
2022-11-16T03:52:34.147Z,99271.38
2022-11-16T03:55:01.849Z,99266.19
2022-11-16T03:57:29.643Z,99261.56
2022-11-16T03:59:58.672Z,99263.44
2022-11-16T04:02:26.415Z,99278.09
2022-11-16T04:05:11.466Z,99268.06
2022-11-16T04:07:56.745Z,99262.19
2022-11-16T04:10:42.000Z,99250.84
2022-11-16T04:13:27.220Z,99242.47
2022-11-16T04:16:12.578Z,99247.94
2022-11-16T04:18:57.731Z,99248.81
2022-11-16T04:21:42.861Z,99252.38
2022-11-16T04:24:13.397Z,99258.69
2022-11-16T04:26:58.617Z,99262.03
2022-11-16T04:29:26.431Z,99267.50
2022-11-16T04:32:11.914Z,99263.72
2022-11-16T04:34:57.066Z,99264.34
2022-11-16T04:37:42.097Z,99269.78
2022-11-16T04:40:09.935Z,99263.50
2022-11-16T04:42:37.758Z,99268.72
2022-11-16T04:45:23.241Z,99269.16
2022-11-16T04:47:50.976Z,99261.59
2022-11-16T04:50:18.903Z,99273.31
2022-11-16T04:52:46.666Z,99259.91
2022-11-16T04:55:14.456Z,99255.28
2022-11-16T04:57:42.248Z,99255.53
2022-11-16T05:00:10.017Z,99257.38
2022-11-16T05:02:37.845Z,99258.25
2022-11-16T05:05:05.603Z,99244.38
2022-11-16T05:07:33.441Z,99253.00
2022-11-16T05:10:01.196Z,99271.69
2022-11-16T05:12:28.918Z,99270.41
2022-11-16T05:14:56.685Z,99262.44
2022-11-16T05:17:24.421Z,99272.09
2022-11-16T05:20:09.457Z,99267.06
2022-11-16T05:22:37.211Z,99260.97
2022-11-16T05:25:04.974Z,99267.06
2022-11-16T05:27:32.731Z,99258.66
2022-11-16T05:30:00.491Z,99257.44
2022-11-16T05:32:28.230Z,99261.59
2022-11-16T05:34:56.055Z,99255.53
2022-11-16T05:37:26.663Z,99248.41
2022-11-16T05:39:54.608Z,99248.41
2022-11-16T05:42:22.362Z,99245.69
2022-11-16T05:44:50.090Z,99244.44
2022-11-16T05:47:17.960Z,99245.06
2022-11-16T05:49:45.922Z,99238.56
2022-11-16T05:52:13.710Z,99242.34
2022-11-16T05:54:41.548Z,99247.78
2022-11-16T05:57:09.330Z,99247.78
2022-11-16T05:59:37.076Z,99250.31
2022-11-16T06:02:05.182Z,99259.75
2022-11-16T06:04:32.986Z,99251.78
2022-11-16T06:07:00.819Z,99257.47
2022-11-16T06:09:28.653Z,99265.84
2022-11-16T06:11:56.403Z,99262.28
2022-11-16T06:14:24.451Z,99266.69
2022-11-16T06:16:52.255Z,99270.66
2022-11-16T06:19:20.302Z,99267.53
2022-11-16T06:21:48.247Z,99274.66
2022-11-16T06:24:16.033Z,99275.47
2022-11-16T06:26:43.813Z,99270.25
2022-11-16T06:29:11.852Z,99270.25
2022-11-16T06:31:39.815Z,99280.94
2022-11-16T06:34:07.510Z,99278.84
2022-11-16T06:36:35.302Z,99274.41
2022-11-16T06:39:03.244Z,99268.75
2022-11-16T06:41:32.209Z,99268.34
2022-11-16T06:44:00.030Z,99260.41
2022-11-16T06:46:27.778Z,99256.41
2022-11-16T06:48:55.785Z,99255.78
2022-11-16T06:51:23.505Z,99260.41
2022-11-16T06:53:51.255Z,99253.44
2022-11-16T06:56:19.537Z,99254.06
2022-11-16T06:58:47.313Z,99252.19
2022-11-16T07:01:15.234Z,99254.50
2022-11-16T07:03:43.032Z,99252.63
2022-11-16T07:06:10.828Z,99261.84
2022-11-16T07:08:38.683Z,99261.84
2022-11-16T07:11:06.485Z,99252.81
2022-11-16T07:13:34.369Z,99259.31
2022-11-16T07:16:02.233Z,99254.31
2022-11-16T07:18:29.998Z,99250.75
2022-11-16T07:20:57.992Z,99254.09
2022-11-16T07:23:25.827Z,99254.09
2022-11-16T07:25:53.671Z,99253.88
2022-11-16T07:28:21.609Z,99264.16
2022-11-16T07:30:49.352Z,99251.59
2022-11-16T07:33:17.194Z,99260.59
2022-11-16T07:35:45.216Z,99264.97
2022-11-16T07:38:17.732Z,99260.78
2022-11-16T07:40:46.742Z,99254.50
2022-11-16T07:43:14.645Z,99250.75
2022-11-16T07:45:42.385Z,99252.63
2022-11-16T07:48:10.160Z,99250.13
2022-11-16T07:50:37.999Z,99253.69
2022-11-16T07:53:05.817Z,99247.59
2022-11-16T07:55:33.668Z,99248.03
2022-11-16T07:58:01.474Z,99247.00
2022-11-16T08:00:29.289Z,99253.72
2022-11-16T08:02:57.101Z,99258.31
2022-11-16T08:05:24.886Z,99252.47
2022-11-16T08:07:52.627Z,99251.00
2022-11-16T08:10:21.143Z,99251.00
2022-11-16T08:12:49.005Z,99253.72
2022-11-16T08:15:16.951Z,99253.72
2022-11-16T08:17:44.748Z,99247.41
2022-11-16T08:20:12.580Z,99246.16
2022-11-16T08:22:40.391Z,99240.69
2022-11-16T08:25:08.173Z,99237.16
2022-11-16T08:27:36.239Z,99245.13
2022-11-16T08:30:04.316Z,99241.34
2022-11-16T08:32:32.102Z,99236.28
2022-11-16T08:34:59.866Z,99230.63
2022-11-16T08:37:28.200Z,99237.97
2022-11-16T08:39:56.482Z,99238.16
2022-11-16T08:42:24.246Z,99235.44
2022-11-16T08:44:52.052Z,99237.34
2022-11-16T08:47:19.887Z,99234.00
2022-11-16T08:49:49.758Z,99233.16
2022-11-16T08:52:17.776Z,99232.72
2022-11-16T08:54:45.634Z,99237.56
2022-11-16T08:57:13.359Z,99233.16
2022-11-16T08:59:41.065Z,99236.94
2022-11-16T09:02:09.211Z,99238.59
2022-11-16T09:04:37.439Z,99238.84
2022-11-16T09:07:05.431Z,99237.97
2022-11-16T09:09:33.297Z,99236.31
2022-11-16T09:12:01.040Z,99237.97
2022-11-16T09:14:30.703Z,99236.94
2022-11-16T09:16:58.556Z,99232.75
2022-11-16T09:19:26.479Z,99225.44
2022-11-16T09:21:54.256Z,99231.94
2022-11-16T09:24:22.024Z,99231.31
2022-11-16T09:26:49.759Z,99228.59
2022-11-16T09:29:17.511Z,99231.94
2022-11-16T09:31:45.287Z,99222.69
2022-11-16T09:34:13.116Z,99218.31
2022-11-16T09:36:40.900Z,99229.41
2022-11-16T09:41:56.568Z,99226.28
2022-11-16T09:44:24.338Z,99227.13
2022-11-16T09:46:52.140Z,99224.41
2022-11-16T09:49:19.933Z,99226.50
2022-11-16T09:51:47.795Z,99222.28
2022-11-16T09:54:15.566Z,99226.69
2022-11-16T09:56:43.995Z,99226.06
2022-11-16T09:59:17.821Z,99224.81
2022-11-16T10:01:46.112Z,99229.81
2022-11-16T10:04:13.877Z,99225.66
2022-11-16T10:06:41.720Z,99225.66
2022-11-16T10:09:11.145Z,99223.97
2022-11-16T10:11:38.910Z,99223.97
2022-11-16T10:14:06.757Z,99227.72
2022-11-16T10:16:34.518Z,99235.25
2022-11-16T10:19:02.284Z,99232.34
2022-11-16T10:21:30.090Z,99234.25
2022-11-16T10:23:57.879Z,99234.25
2022-11-16T10:26:25.603Z,99239.44
2022-11-16T10:28:53.555Z,99239.44
2022-11-16T10:31:21.285Z,99241.34
2022-11-16T10:33:49.127Z,99237.78
2022-11-16T10:36:16.914Z,99244.06
2022-11-16T10:38:44.653Z,99238.63
2022-11-16T10:41:12.402Z,99236.72
2022-11-16T10:43:40.579Z,99239.44
2022-11-16T10:46:08.306Z,99239.28
2022-11-16T10:48:37.411Z,99237.59
2022-11-16T10:51:05.248Z,99229.41
2022-11-16T10:53:33.296Z,99227.72
2022-11-16T10:56:01.377Z,99234.00
2022-11-16T10:58:29.187Z,99237.59
2022-11-16T11:00:57.973Z,99229.41
2022-11-16T11:03:25.949Z,99225.66
2022-11-16T11:05:53.719Z,99225.66
2022-11-16T11:08:21.475Z,99224.59
2022-11-16T11:10:49.249Z,99218.13
2022-11-16T11:13:17.010Z,99217.25
2022-11-16T11:15:44.852Z,99216.44
2022-11-16T11:18:12.747Z,99215.59
2022-11-16T11:20:44.778Z,99210.16
2022-11-16T11:23:12.984Z,99207.44
2022-11-16T11:25:41.297Z,99210.16
2022-11-16T11:28:09.025Z,99208.66
2022-11-16T11:30:36.752Z,99207.00
2022-11-16T11:33:04.543Z,99205.94
2022-11-16T11:35:32.456Z,99201.31
2022-11-16T11:38:04.755Z,99194.88
2022-11-16T11:40:36.173Z,99203.03
2022-11-16T11:43:04.023Z,99202.19
2022-11-16T11:45:31.782Z,99196.72
2022-11-16T11:48:00.176Z,99196.34
2022-11-16T11:50:28.271Z,99201.16
2022-11-16T11:52:56.104Z,99190.44
2022-11-16T11:55:23.847Z,99197.78
2022-11-16T11:57:53.025Z,99195.03
2022-11-16T12:00:20.782Z,99184.97
2022-11-16T12:02:48.590Z,99193.38
2022-11-16T12:05:16.546Z,99179.38
2022-11-16T12:07:44.386Z,99185.63
2022-11-16T12:10:12.174Z,99177.28
2022-11-16T12:12:39.895Z,99184.56
2022-11-16T12:15:07.586Z,99191.72
2022-11-16T12:17:35.297Z,99184.16
2022-11-16T12:20:03.038Z,99176.00
2022-11-16T12:22:30.820Z,99174.31
2022-11-16T12:24:58.619Z,99177.88
2022-11-16T12:27:27.204Z,99179.56
2022-11-16T12:29:55.003Z,99183.31
2022-11-16T12:32:23.036Z,99185.00
2022-11-16T12:34:52.359Z,99177.88
2022-11-16T12:37:20.322Z,99176.00
2022-11-16T12:39:48.055Z,99180.19
2022-11-16T12:42:15.780Z,99180.78
2022-11-16T12:44:43.632Z,99177.47
2022-11-16T12:47:11.488Z,99179.13
2022-11-16T12:49:39.268Z,99185.19
2022-11-16T12:52:07.043Z,99183.50
2022-11-16T12:54:34.883Z,99185.19
2022-11-16T12:57:02.639Z,99187.47
2022-11-16T12:59:30.376Z,99182.03
2022-11-16T13:02:00.608Z,99191.28
2022-11-16T13:04:28.702Z,99185.81
2022-11-16T13:06:56.537Z,99185.81
2022-11-16T13:09:24.323Z,99182.47
2022-11-16T13:11:52.092Z,99184.56
2022-11-16T13:14:19.948Z,99182.47
2022-11-16T13:16:47.827Z,99180.38
2022-11-16T13:19:15.626Z,99178.06
2022-11-16T13:21:43.754Z,99175.31
2022-11-16T13:24:11.895Z,99175.31
2022-11-16T13:26:39.669Z,99173.22
2022-11-16T13:29:07.392Z,99180.38
2022-11-16T13:31:35.216Z,99177.84
2022-11-16T13:34:03.041Z,99176.19
2022-11-16T13:36:30.960Z,99179.75
2022-11-16T13:38:58.738Z,99168.84
2022-11-16T13:41:26.658Z,99169.88
2022-11-16T13:43:54.446Z,99166.13
2022-11-16T13:46:53.792Z,99164.03
2022-11-16T13:49:10.083Z,99166.13
2022-11-16T13:51:38.009Z,99162.34
2022-11-16T13:56:53.560Z,99161.31
2022-11-16T13:59:21.450Z,99158.59
2022-11-16T14:01:49.516Z,99160.44
2022-11-16T14:04:17.281Z,99162.34
2022-11-16T14:06:45.034Z,99162.34
2022-11-16T14:09:12.896Z,99164.44
2022-11-16T14:11:40.620Z,99157.94
2022-11-16T14:14:08.444Z,99156.88
2022-11-16T14:16:36.157Z,99155.84
2022-11-16T14:19:04.381Z,99152.28
2022-11-16T14:21:32.261Z,99151.00
2022-11-16T14:24:00.073Z,99157.06
2022-11-16T14:26:28.041Z,99154.34
2022-11-16T14:28:55.853Z,99145.56
2022-11-16T14:31:23.682Z,99145.16
2022-11-16T14:33:51.485Z,99146.00
2022-11-16T14:36:19.219Z,99143.28
2022-11-16T14:38:47.678Z,99141.16
2022-11-16T14:41:15.506Z,99136.56
2022-11-16T14:43:43.358Z,99146.81
2022-11-16T14:46:11.177Z,99136.38
2022-11-16T14:48:38.981Z,99140.19
2022-11-16T14:51:06.737Z,99130.47
2022-11-16T14:53:34.879Z,99134.97
2022-11-16T14:56:02.936Z,99137.94
2022-11-16T14:58:30.927Z,99139.97
2022-11-16T15:00:58.679Z,99138.38
2022-11-16T15:03:26.538Z,99145.50
2022-11-16T15:05:54.316Z,99143.97
2022-11-16T15:08:22.184Z,99147.16
2022-11-16T15:10:52.645Z,99145.44
2022-11-16T15:13:20.874Z,99146.50
2022-11-16T15:15:49.173Z,99141.88
2022-11-16T15:18:17.397Z,99137.97
2022-11-16T15:20:45.294Z,99132.28
2022-11-16T15:23:13.062Z,99138.06
2022-11-16T15:25:40.953Z,99129.16
2022-11-16T15:28:08.719Z,99120.59
2022-11-16T15:30:37.574Z,99136.91
2022-11-16T15:33:05.322Z,99128.81
2022-11-16T15:35:33.107Z,99127.19
2022-11-16T15:38:00.866Z,99121.94
2022-11-16T15:40:28.643Z,99120.50
2022-11-16T15:43:28.094Z,99121.03
2022-11-16T15:45:55.855Z,99124.34
2022-11-16T15:48:23.635Z,99120.63
2022-11-16T15:50:51.485Z,99117.81
2022-11-16T15:53:19.317Z,99120.78
2022-11-16T15:55:47.098Z,99123.28
2022-11-16T15:58:15.158Z,99129.50
2022-11-16T16:00:42.903Z,99116.78
2022-11-16T16:03:11.129Z,99115.03
2022-11-16T16:05:38.906Z,99113.75
2022-11-16T16:08:06.673Z,99119.56
2022-11-16T16:10:34.444Z,99117.59
2022-11-16T16:13:02.193Z,99121.34
2022-11-16T16:15:31.108Z,99114.94
2022-11-16T16:17:58.892Z,99123.59
2022-11-16T16:20:26.982Z,99120.50
2022-11-16T16:22:55.461Z,99120.63
2022-11-16T16:25:23.361Z,99117.03
2022-11-16T16:27:51.237Z,99113.53
2022-11-16T16:30:18.965Z,99117.75
2022-11-16T16:32:46.706Z,99121.78
2022-11-16T16:35:14.487Z,99121.44
2022-11-16T16:37:42.285Z,99119.53
2022-11-16T16:40:10.043Z,99114.28
2022-11-16T16:42:37.948Z,99117.97
2022-11-16T16:45:05.781Z,99121.25
2022-11-16T16:47:33.684Z,99129.25
2022-11-16T16:50:01.909Z,99121.66
2022-11-16T16:52:30.579Z,99124.41
2022-11-16T16:54:58.370Z,99132.50
2022-11-16T16:57:26.361Z,99134.47
2022-11-16T16:59:54.664Z,99133.06
2022-11-16T17:02:22.510Z,99134.47
2022-11-16T17:04:50.415Z,99133.84
2022-11-16T17:07:18.218Z,99139.25
2022-11-16T17:09:46.260Z,99137.22
2022-11-16T17:12:14.034Z,99136.81
2022-11-16T17:14:42.256Z,99129.44
2022-11-16T17:17:10.251Z,99128.81
2022-11-16T17:19:38.121Z,99132.53
2022-11-16T17:22:08.717Z,99136.47
2022-11-16T17:24:36.994Z,99131.81
2022-11-16T17:27:04.751Z,99128.63
2022-11-16T17:29:32.679Z,99125.22
2022-11-16T17:32:00.598Z,99120.53
2022-11-16T17:34:28.339Z,99125.91
2022-11-16T17:36:56.915Z,99125.63
2022-11-16T17:39:24.871Z,99125.19
2022-11-16T17:41:52.631Z,99118.63
2022-11-16T17:44:22.021Z,99116.66
2022-11-16T17:46:50.352Z,99110.28
2022-11-16T17:49:18.173Z,99115.91
2022-11-16T17:51:45.913Z,99106.19
2022-11-16T17:54:14.237Z,99125.25
2022-11-16T17:56:42.805Z,99127.34
2022-11-16T17:59:10.594Z,99130.19
2022-11-16T18:01:38.385Z,99134.75
2022-11-16T18:04:06.188Z,99139.50
2022-11-16T18:06:35.491Z,99138.75
2022-11-16T18:09:03.354Z,99138.25
2022-11-16T18:11:31.420Z,99129.69
2022-11-16T18:13:59.392Z,99136.41
2022-11-16T18:16:27.199Z,99133.28
2022-11-16T18:18:54.997Z,99137.88
2022-11-16T18:21:22.797Z,99137.34
2022-11-16T18:23:50.557Z,99133.81
2022-11-16T18:26:18.758Z,99142.81
2022-11-16T18:28:46.668Z,99142.19
2022-11-16T18:31:15.392Z,99133.63
2022-11-16T18:33:43.349Z,99144.66
2022-11-16T18:36:11.068Z,99133.91
2022-11-16T18:38:38.841Z,99139.84
2022-11-16T18:41:06.607Z,99146.59
2022-11-16T18:43:35.352Z,99136.34
2022-11-16T18:46:03.438Z,99132.56
2022-11-16T18:48:31.173Z,99131.25
2022-11-16T18:50:58.929Z,99127.81
2022-11-16T18:53:26.758Z,99129.19
2022-11-16T18:55:57.801Z,99132.13
2022-11-16T19:01:14.391Z,99110.31
2022-11-16T19:03:42.471Z,99122.41
2022-11-16T19:06:10.229Z,99121.06
2022-11-16T19:08:38.108Z,99115.13
2022-11-16T19:11:06.439Z,99109.88
2022-11-16T19:13:34.495Z,99114.75
2022-11-16T19:16:02.373Z,99117.84
2022-11-16T19:18:30.111Z,99112.91
2022-11-16T19:20:57.869Z,99103.47
2022-11-16T19:23:25.641Z,99107.47
2022-11-16T19:25:53.381Z,99105.16
2022-11-16T19:28:21.251Z,99103.88
2022-11-16T19:30:49.009Z,99109.59
2022-11-16T19:33:16.735Z,99102.41
2022-11-16T19:35:44.522Z,99118.78
2022-11-16T19:38:13.353Z,99110.56
2022-11-16T19:40:41.301Z,99111.28
2022-11-16T19:43:09.094Z,99115.63
2022-11-16T19:45:36.959Z,99116.63
2022-11-16T19:48:04.714Z,99123.44
2022-11-16T19:50:32.442Z,99115.66
2022-11-16T19:53:00.235Z,99124.41
2022-11-16T19:55:28.019Z,99126.53
2022-11-16T19:57:55.832Z,99132.53
2022-11-16T20:00:23.601Z,99126.69
2022-11-16T20:02:51.528Z,99127.78
2022-11-16T20:05:19.282Z,99126.75
2022-11-16T20:07:47.122Z,99115.81
2022-11-16T20:10:14.926Z,99109.50
2022-11-16T20:12:45.601Z,99112.28
2022-11-16T20:15:13.393Z,99104.84
2022-11-16T20:17:41.197Z,99116.16
2022-11-16T20:20:08.985Z,99103.53
2022-11-16T20:22:36.743Z,99108.31
2022-11-16T20:25:04.611Z,99103.03
2022-11-16T20:27:32.347Z,99115.13
2022-11-16T20:30:03.721Z,99107.66
2022-11-16T20:32:34.295Z,99108.56
2022-11-16T20:35:02.039Z,99109.59
2022-11-16T20:37:29.924Z,99113.59
2022-11-16T20:39:57.657Z,99101.97
2022-11-16T20:42:25.400Z,99107.50
2022-11-16T20:44:53.165Z,99115.34
2022-11-16T20:47:20.920Z,99115.56
2022-11-16T20:49:48.657Z,99112.69
2022-11-16T20:52:16.405Z,99119.91
2022-11-16T20:54:44.163Z,99122.75
2022-11-16T20:57:12.037Z,99110.59
2022-11-16T20:59:40.052Z,99108.56
2022-11-16T21:02:07.833Z,99118.88
2022-11-16T21:04:35.602Z,99119.81
2022-11-16T21:07:03.468Z,99128.91
2022-11-16T21:09:51.317Z,99121.56
2022-11-16T21:12:41.471Z,99120.34
2022-11-16T21:15:10.484Z,99125.06
2022-11-16T21:17:38.345Z,99129.28
2022-11-16T21:20:26.218Z,99124.25
2022-11-16T21:22:53.982Z,99123.03
2022-11-16T21:25:21.826Z,99129.13
2022-11-16T21:27:49.616Z,99131.38
2022-11-16T21:30:17.430Z,99143.22
2022-11-16T21:32:45.393Z,99133.97
2022-11-16T21:35:13.160Z,99136.06
2022-11-16T21:37:40.949Z,99134.19
2022-11-16T21:40:08.754Z,99139.50
2022-11-16T21:42:36.549Z,99133.66
2022-11-16T21:45:04.399Z,99132.81
2022-11-16T21:47:32.186Z,99140.19
2022-11-16T21:50:30.042Z,99146.56
2022-11-16T21:52:47.671Z,99144.03
2022-11-16T21:55:15.449Z,99149.50
2022-11-16T21:57:43.196Z,99140.94
2022-11-16T22:00:10.981Z,99134.63
2022-11-16T22:02:38.735Z,99139.69
2022-11-16T22:05:24.250Z,99136.97
2022-11-16T22:07:51.990Z,99129.25
2022-11-16T22:10:19.734Z,99134.91
2022-11-16T22:12:47.432Z,99127.84
2022-11-16T22:15:15.240Z,99118.84
2022-11-16T22:17:43.121Z,99130.19
2022-11-16T22:20:10.994Z,99115.28
2022-11-16T22:22:38.765Z,99118.50
2022-11-16T22:25:06.827Z,99116.44
2022-11-16T22:27:52.107Z,99116.28
2022-11-16T22:30:22.439Z,99129.69
2022-11-16T22:32:50.201Z,99130.78
2022-11-16T22:35:18.006Z,99131.81
2022-11-16T22:37:45.814Z,99129.09
2022-11-16T22:40:17.615Z,99123.88
2022-11-16T22:42:45.747Z,99121.06
2022-11-16T22:45:13.579Z,99120.06
2022-11-16T22:47:41.295Z,99120.53
2022-11-16T22:50:09.302Z,99125.38
2022-11-16T22:52:37.371Z,99141.09
2022-11-16T22:55:05.297Z,99137.50
2022-11-16T22:57:33.030Z,99140.44
2022-11-16T23:00:00.812Z,99142.78
2022-11-16T23:02:28.680Z,99135.81
2022-11-16T23:04:56.444Z,99139.81
2022-11-16T23:07:24.489Z,99140.28
2022-11-16T23:09:52.264Z,99143.00
2022-11-16T23:12:37.783Z,99135.91
2022-11-16T23:15:23.116Z,99127.91
2022-11-16T23:17:50.887Z,99129.00
2022-11-16T23:20:38.164Z,99129.38
2022-11-16T23:23:23.350Z,99127.31
2022-11-16T23:26:08.826Z,99115.81
2022-11-16T23:28:36.595Z,99118.09
2022-11-16T23:31:04.654Z,99105.91
2022-11-16T23:33:44.880Z,99101.25
2022-11-16T23:36:12.676Z,99086.81
2022-11-16T23:38:40.402Z,99084.28
2022-11-16T23:41:21.975Z,99079.66
2022-11-16T23:44:02.004Z,99078.63
2022-11-16T23:46:30.307Z,99080.53
2022-11-16T23:48:58.392Z,99070.03
2022-11-16T23:51:26.185Z,99072.34
2022-11-16T23:53:54.139Z,99062.72
2022-11-16T23:56:21.935Z,99057.28
2022-11-16T23:58:49.687Z,99061.06
